ADDS TAF Data INFO
IDs: Format: Raw Decoded Include METARs

Data at: 1823 UTC 24 Jun 2018

KGCN 241754Z 25008KT 10SM CLR 27/M01 A3020 RMK AO2 SLP112 T02671011 10272 20061 51002

KGCN 241733Z 2418/2518 24012G20KT P6SM SKC
  FM250200 VRB06KT P6SM SKC